^^
Your Local Weather - Clay, NY Station Historical Data
Daily Summary for September 7, 2017 Units:  English    Metric   Both
« Previous Day
Next Day »
Daily Weekly Monthly Yearly Custom
  High: Low: Average:
Temperature: 68.1 °F 53.2 °F 59.4 °F
Dew Point: 56.1 °F 47.9 °F 52.9 °F
Humidity: 95% 57% 80%
Wind Speed: 4.0mph 0.0mph 1.3mph
Wind Gust: 9.0mph - -
Wind- - SW
Pressure: 29.89 in 29.77 in -
Precipitation: 0.06 in    
Historical Graphs
 
 
Tabular Data for September 7, 2017
Time Temperature Dew Point Pressure Wind Wind Speed Wind Gust Humidity Rainfall Rate (Hourly) solar
00:04 57.6 °F 55.9 °F 29.80 in ESE 1.0 mph 1.0 mph 94% 0.00 in 0 W/m2
00:10 57.5 °F 55.8 °F 29.80 in Calm     94% 0.00 in 0 W/m2
00:16 57.5 °F 55.8 °F 29.80 in Calm     94% 0.00 in 0 W/m2
00:22 57.4 °F 55.7 °F 29.80 in Calm     94% 0.00 in 0 W/m2
00:28 57.5 °F 55.8 °F 29.83 in Calm   1.0 mph 94% 0.00 in 0 W/m2
00:32 57.6 °F 55.9 °F 29.82 in Calm     94% 0.00 in 0 W/m2
00:38 57.6 °F 55.9 °F 29.83 in Calm     94% 0.00 in 0 W/m2
00:44 57.7 °F 56.0 °F 29.82 in Calm     94% 0.00 in 0 W/m2
00:49 57.7 °F 56.0 °F 29.82 in Calm     94% 0.00 in 0 W/m2
00:56 57.6 °F 55.9 °F 29.81 in Calm     94% 0.00 in 0 W/m2
01:02 57.5 °F 55.8 °F 29.81 in Calm     94% 0.00 in 0 W/m2
01:08 57.3 °F 55.6 °F 29.80 in Calm     94% 0.00 in 0 W/m2
01:14 57.2 °F 55.5 °F 29.80 in Calm     94% 0.00 in 0 W/m2
01:20 57.1 °F 55.4 °F 29.80 in Calm     94% 0.00 in 0 W/m2
01:26 56.8 °F 55.1 °F 29.80 in Calm     94% 0.00 in 0 W/m2
01:32 56.8 °F 55.1 °F 29.80 in Calm     94% 0.00 in 0 W/m2
01:38 56.9 °F 55.2 °F 29.80 in Calm     94% 0.00 in 0 W/m2
01:44 57.0 °F 55.3 °F 29.80 in Calm     94% 0.00 in 0 W/m2
01:49 57.2 °F 55.5 °F 29.80 in Calm     94% 0.00 in 0 W/m2
01:52 57.2 °F 55.5 °F 29.80 in Calm     94% 0.00 in 0 W/m2
01:58 57.3 °F 55.6 °F 29.80 in Calm     94% 0.00 in 0 W/m2
02:04 57.4 °F 56.0 °F 29.80 in Calm   1.0 mph 95% 0.00 in 0 W/m2
02:10 57.5 °F 56.1 °F 29.80 in Calm     95% 0.00 in 0 W/m2
02:16 57.5 °F 56.1 °F 29.79 in Calm     95% 0.00 in 0 W/m2
02:22 57.4 °F 56.0 °F 29.79 in Calm     95% 0.00 in 0 W/m2
02:28 57.4 °F 56.0 °F 29.78 in Calm     95% 0.00 in 0 W/m2
02:36 57.2 °F 55.5 °F 29.79 in Calm     94% 0.00 in 0 W/m2
02:42 57.0 °F 55.3 °F 29.79 in Calm     94% 0.00 in 0 W/m2
02:48 56.8 °F 55.1 °F 29.79 in Calm     94% 0.00 in 0 W/m2
02:54 56.6 °F 54.9 °F 29.79 in Calm     94% 0.00 in 0 W/m2
03:00 56.4 °F 54.7 °F 29.79 in Calm     94% 0.00 in 0 W/m2
03:06 56.6 °F 54.9 °F 29.79 in Calm   1.0 mph 94% 0.00 in 0 W/m2
03:12 56.8 °F 55.4 °F 29.78 in Calm   1.0 mph 95% 0.00 in 0 W/m2
03:18 56.9 °F 55.5 °F 29.78 in Calm   1.0 mph 95% 0.00 in 0 W/m2
03:24 56.8 °F 55.4 °F 29.78 in Calm     95% 0.00 in 0 W/m2
03:30 56.6 °F 54.9 °F 29.78 in Calm     94% 0.00 in 0 W/m2
03:35 56.5 °F 54.8 °F 29.78 in Calm     94% 0.00 in 0 W/m2
03:42 56.5 °F 54.8 °F 29.78 in Calm   1.0 mph 94% 0.00 in 0 W/m2
03:48 56.4 °F 54.7 °F 29.77 in Calm   1.0 mph 94% 0.00 in 0 W/m2
03:54 56.3 °F 54.9 °F 29.77 in Calm   1.0 mph 95% 0.00 in 0 W/m2
04:00 56.2 °F 54.8 °F 29.77 in Calm     95% 0.00 in 0 W/m2
04:06 56.1 °F 54.7 °F 29.77 in Calm     95% 0.00 in 0 W/m2
04:12 56.1 °F 54.7 °F 29.77 in Calm     95% 0.00 in 0 W/m2
04:18 56.0 °F 54.6 °F 29.77 in Calm     95% 0.00 in 0 W/m2
04:24 55.9 °F 54.2 °F 29.77 in Calm     94% 0.00 in 0 W/m2
04:29 55.8 °F 54.1 °F 29.77 in Calm     94% 0.00 in 0 W/m2
04:36 55.7 °F 54.0 °F 29.77 in Calm   1.0 mph 94% 0.00 in 0 W/m2
04:42 55.8 °F 54.1 °F 29.77 in ESE 1.0 mph 2.0 mph 94% 0.00 in 0 W/m2
04:48 55.8 °F 54.4 °F 29.78 in Calm   2.0 mph 95% 0.00 in 0 W/m2
04:54 55.9 °F 54.5 °F 29.78 in Calm     95% 0.00 in 0 W/m2
05:00 55.8 °F 54.4 °F 29.78 in Calm     95% 0.00 in 0 W/m2
05:06 55.6 °F 54.2 °F 29.78 in Calm     95% 0.00 in 0 W/m2
05:12 55.5 °F 54.1 °F 29.78 in Calm     95% 0.00 in 0 W/m2
05:18 55.2 °F 53.5 °F 29.77 in Calm     94% 0.00 in 0 W/m2
05:24 55.1 °F 53.7 °F 29.77 in Calm     95% 0.00 in 0 W/m2
05:30 54.8 °F 53.4 °F 29.77 in Calm     95% 0.00 in 0 W/m2
05:36 54.6 °F 52.9 °F 29.77 in Calm     94% 0.00 in 0 W/m2
05:42 54.3 °F 52.6 °F 29.77 in Calm     94% 0.00 in 0 W/m2
05:48 54.1 °F 52.4 °F 29.77 in Calm     94% 0.00 in 0 W/m2
05:54 53.8 °F 52.1 °F 29.77 in Calm     94% 0.00 in 0 W/m2
06:00 53.4 °F 51.7 °F 29.77 in Calm     94% 0.00 in 0 W/m2
06:06 53.2 °F 51.5 °F 29.78 in Calm     94% 0.00 in 0 W/m2
06:12 53.4 °F 51.7 °F 29.78 in Calm   1.0 mph 94% 0.00 in 0 W/m2
06:18 53.6 °F 51.9 °F 29.78 in Calm   1.0 mph 94% 0.00 in 0 W/m2
06:24 53.9 °F 52.5 °F 29.78 in Calm   1.0 mph 95% 0.00 in 0 W/m2
06:30 54.1 °F 52.7 °F 29.78 in SE 1.0 mph 1.0 mph 95% 0.00 in 0 W/m2
06:36 54.1 °F 52.7 °F 29.78 in SE 1.0 mph 1.0 mph 95% 0.00 in 0 W/m2
06:42 54.0 °F 52.6 °F 29.78 in Calm     95% 0.00 in 7 W/m2
06:48 53.9 °F 52.5 °F 29.78 in Calm     95% 0.00 in 9 W/m2
06:54 53.6 °F 52.2 °F 29.78 in Calm     95% 0.00 in 12 W/m2
07:00 53.4 °F 51.7 °F 29.78 in Calm     94% 0.00 in 16 W/m2
07:06 53.3 °F 51.9 °F 29.78 in Calm     95% 0.00 in 19 W/m2
07:12 53.3 °F 51.9 °F 29.78 in Calm     95% 0.00 in 25 W/m2
07:18 53.2 °F 51.8 °F 29.78 in Calm     95% 0.00 in 28 W/m2
07:24 53.4 °F 52.0 °F 29.78 in Calm     95% 0.00 in 39 W/m2
07:29 53.7 °F 52.3 °F 29.78 in Calm     95% 0.00 in 46 W/m2
07:36 54.1 °F 52.7 °F 29.78 in Calm     95% 0.00 in 40 W/m2
07:42 54.4 °F 53.0 °F 29.78 in Calm   1.0 mph 95% 0.00 in 56 W/m2
07:48 54.8 °F 53.4 °F 29.78 in SE 1.0 mph 1.0 mph 95% 0.00 in 53 W/m2
07:54 55.2 °F 53.8 °F 29.78 in SE 1.0 mph 2.0 mph 95% 0.00 in 151 W/m2
07:59 55.5 °F 54.1 °F 29.78 in SW 1.0 mph 5.0 mph 95% 0.00 in 84 W/m2
08:06 55.9 °F 54.5 °F 29.78 in SW 2.0 mph 5.0 mph 95% 0.00 in 76 W/m2
08:12 56.4 °F 55.0 °F 29.78 in SW 1.0 mph 2.0 mph 95% 0.00 in 90 W/m2
08:18 56.9 °F 55.5 °F 29.78 in SW 1.0 mph 3.0 mph 95% 0.00 in 139 W/m2
08:24 57.2 °F 55.5 °F 29.78 in SW 1.0 mph 1.0 mph 94% 0.00 in 93 W/m2
08:30 57.4 °F 55.4 °F 29.78 in SW 1.0 mph 3.0 mph 93% 0.00 in 74 W/m2
08:36 57.5 °F 55.2 °F 29.78 in SW 2.0 mph 3.0 mph 92% 0.00 in 90 W/m2
08:42 57.9 °F 55.3 °F 29.78 in SW 2.0 mph 3.0 mph 91% 0.00 in 86 W/m2
08:48 58.3 °F 55.1 °F 29.78 in SW 2.0 mph 4.0 mph 89% 0.00 in 100 W/m2
08:53 58.8 °F 55.3 °F 29.79 in WSW 2.0 mph 5.0 mph 88% 0.00 in 90 W/m2
09:00 59.2 °F 54.7 °F 29.78 in SW 3.0 mph 3.0 mph 85% 0.00 in 97 W/m2
09:06 59.6 °F 54.8 °F 29.79 in WSW 3.0 mph 4.0 mph 84% 0.00 in 102 W/m2
09:10 59.9 °F 54.7 °F 29.78 in WSW 3.0 mph 3.0 mph 83% 0.00 in 84 W/m2
09:16 60.1 °F 54.2 °F 29.78 in SSW 3.0 mph 4.0 mph 81% 0.00 in 95 W/m2
09:22 60.6 °F 55.1 °F 29.79 in WSW 2.0 mph 5.0 mph 82% 0.00 in 98 W/m2
09:30 60.9 °F 54.3 °F 29.80 in WSW 2.0 mph 2.0 mph 79% 0.00 in 79 W/m2
09:36 61.5 °F 54.9 °F 29.80 in NW 1.0 mph 4.0 mph 79% 0.00 in 97 W/m2
09:42 61.8 °F 53.8 °F 29.80 in SW 1.0 mph 4.0 mph 75% 0.00 in 497 W/m2
09:48 62.2 °F 54.5 °F 29.80 in SW 1.0 mph 4.0 mph 76% 0.00 in 517 W/m2
09:54 62.5 °F 54.1 °F 29.80 in WSW 1.0 mph 3.0 mph 74% 0.00 in 519 W/m2
10:00 62.6 °F 54.2 °F 29.80 in West 2.0 mph 2.0 mph 74% 0.00 in 573 W/m2
10:06 63.1 °F 54.3 °F 29.81 in SW 3.0 mph 5.0 mph 73% 0.00 in 659 W/m2
10:12 63.2 °F 55.5 °F 29.81 in WSW 2.0 mph 3.0 mph 76% 0.00 in 714 W/m2
10:18 63.0 °F 54.9 °F 29.81 in West 1.0 mph 6.0 mph 75% 0.00 in 206 W/m2
10:24 63.1 °F 54.7 °F 29.81 in NW 1.0 mph 6.0 mph 74% 0.00 in 179 W/m2
10:30 62.8 °F 54.8 °F 29.81 in WSW 2.0 mph 2.0 mph 75% 0.00 in 192 W/m2
10:35 62.7 °F 54.7 °F 29.81 in SW 3.0 mph 4.0 mph 75% 0.00 in 707 W/m2
10:42 63.6 °F 55.2 °F 29.81 in WSW 3.0 mph 8.0 mph 74% 0.00 in 773 W/m2
10:48 63.1 °F 54.3 °F 29.81 in WNW 3.0 mph 8.0 mph 73% 0.00 in 323 W/m2
10:54 62.6 °F 53.4 °F 29.81 in West 3.0 mph 7.0 mph 72% 0.00 in 415 W/m2
11:00 63.4 °F 54.6 °F 29.81 in SW 4.0 mph 7.0 mph 73% 0.00 in 939 W/m2
11:06 65.6 °F 54.8 °F 29.81 in WSW 4.0 mph 7.0 mph 68% 0.00 in 1027 W/m2
11:12 64.3 °F 53.9 °F 29.81 in West 3.0 mph 3.0 mph 69% 0.00 in 376 W/m2
11:18 63.8 °F 53.8 °F 29.81 in East 3.0 mph 4.0 mph 70% 0.00 in 334 W/m2
11:23 63.4 °F 53.8 °F 29.81 in WSW 3.0 mph 9.0 mph 71% 0.00 in 302 W/m2
11:29 63.4 °F 54.2 °F 29.81 in West 3.0 mph 3.0 mph 72% 0.00 in 301 W/m2
11:36 63.8 °F 54.6 °F 29.81 in South 2.0 mph 3.0 mph 72% 0.00 in 322 W/m2
11:42 63.7 °F 53.7 °F 29.81 in SW 2.0 mph 2.0 mph 70% 0.00 in 362 W/m2
11:48 63.8 °F 53.8 °F 29.81 in WSW 3.0 mph 4.0 mph 70% 0.00 in 417 W/m2
11:54 64.8 °F 54.8 °F 29.81 in NW 3.0 mph 5.0 mph 70% 0.00 in 1109 W/m2
12:00 64.8 °F 52.8 °F 29.81 in WSW 3.0 mph 3.0 mph 65% 0.00 in 179 W/m2
12:06 64.0 °F 53.2 °F 29.81 in NW 3.0 mph 3.0 mph 68% 0.00 in 264 W/m2
12:12 63.8 °F 53.4 °F 29.81 in ENE 2.0 mph 2.0 mph 69% 0.00 in 255 W/m2
12:18 63.8 °F 53.4 °F 29.81 in WSW 1.0 mph 5.0 mph 69% 0.00 in 246 W/m2
12:24 64.1 °F 53.3 °F 29.81 in WSW 1.0 mph 5.0 mph 68% 0.00 in 320 W/m2
12:30 66.7 °F 55.4 °F 29.80 in SW 2.0 mph 2.0 mph 67% 0.00 in 1035 W/m2
12:36 67.0 °F 54.4 °F 29.80 in WNW 2.0 mph 6.0 mph 64% 0.00 in 670 W/m2
12:42 66.3 °F 53.3 °F 29.81 in NNW 3.0 mph 5.0 mph 63% 0.00 in 424 W/m2
12:48 65.2 °F 52.7 °F 29.81 in SW 3.0 mph 5.0 mph 64% 0.00 in 749 W/m2
12:53 66.0 °F 54.3 °F 29.80 in WSW 4.0 mph 5.0 mph 66% 0.00 in 882 W/m2
13:00 67.4 °F 53.9 °F 29.80 in SW 3.0 mph 4.0 mph 62% 0.00 in 918 W/m2
13:06 66.7 °F 52.8 °F 29.80 in WSW 3.0 mph 4.0 mph 61% 0.00 in 199 W/m2
13:12 66.3 °F 54.6 °F 29.81 in WSW 2.0 mph 3.0 mph 66% 0.00 in 965 W/m2
13:18 68.1 °F 55.0 °F 29.81 in NW 2.0 mph 4.0 mph 63% 0.00 in 983 W/m2
13:23 67.0 °F 51.3 °F 29.81 in NNW 3.0 mph 4.0 mph 57% 0.00 in 211 W/m2
13:30 65.5 °F 52.1 °F 29.81 in WSW 2.0 mph 2.0 mph 62% 0.00 in 183 W/m2
13:36 65.3 °F 52.8 °F 29.81 in West 2.0 mph 3.0 mph 64% 0.00 in 988 W/m2
13:42 67.2 °F 55.0 °F 29.80 in WSW 2.0 mph 4.0 mph 65% 0.00 in 953 W/m2
13:48 66.1 °F 51.4 °F 29.80 in SW 3.0 mph 7.0 mph 59% 0.00 in 329 W/m2
13:54 66.9 °F 53.5 °F 29.80 in NW 3.0 mph 4.0 mph 62% 0.00 in 886 W/m2
14:00 67.4 °F 52.1 °F 29.80 in NW 2.0 mph 4.0 mph 58% 0.00 in 942 W/m2
14:05 66.9 °F 51.2 °F 29.80 in NNW 2.0 mph 4.0 mph 57% 0.00 in 223 W/m2
14:12 64.7 °F 51.8 °F 29.80 in NW 3.0 mph 3.0 mph 63% 0.00 in 107 W/m2
14:18 63.6 °F 52.0 °F 29.81 in WNW 2.0 mph 3.0 mph 66% 0.00 in 169 W/m2
14:24 63.2 °F 52.5 °F 29.80 in WNW 2.0 mph 2.0 mph 68% 0.00 in 278 W/m2
14:30 64.7 °F 53.9 °F 29.80 in North 2.0 mph 5.0 mph 68% 0.00 in 935 W/m2
14:36 64.1 °F 53.7 °F 29.80 in NNW 3.0 mph 5.0 mph 69% 0.00 in 1046 W/m2
14:42 63.1 °F 53.5 °F 29.80 in NNW 3.0 mph 4.0 mph 71% 0.00 in 195 W/m2
14:48 62.2 °F 53.8 °F 29.81 in NNW 2.0 mph 4.0 mph 74% 0.00 in 63 W/m2
14:56 61.1 °F 53.5 °F 29.81 in NW 2.0 mph 2.0 mph 76% 0.81 in 53 W/m2
15:02 59.6 °F 52.0 °F 29.80 in NNE 1.0 mph 1.0 mph 76% 0.14 in 123 W/m2
15:08 59.8 °F 54.3 °F 29.80 in NNE 1.0 mph 1.0 mph 82% 0.09 in 207 W/m2
15:13 59.5 °F 53.0 °F 29.80 in NNE 1.0 mph 2.0 mph 79% 0.08 in 167 W/m2
15:19 59.4 °F 53.9 °F 29.80 in NNE 1.0 mph 1.0 mph 82% 0.05 in 290 W/m2
15:26 59.3 °F 53.1 °F 29.80 in Calm   2.0 mph 80% 0.00 in 83 W/m2
15:32 59.2 °F 53.0 °F 29.81 in SE 1.0 mph 1.0 mph 80% 0.00 in 90 W/m2
15:38 59.4 °F 53.9 °F 29.81 in SE 1.0 mph 2.0 mph 82% 0.00 in 135 W/m2
15:44 59.5 °F 54.0 °F 29.81 in SE 1.0 mph 1.0 mph 82% 0.00 in 193 W/m2
15:50 60.7 °F 55.2 °F 29.81 in SE 1.0 mph 1.0 mph 82% 0.00 in 802 W/m2
15:56 62.0 °F 54.7 °F 29.81 in SE 1.0 mph 2.0 mph 77% 0.00 in 636 W/m2
16:02 63.5 °F 54.7 °F 29.81 in SE 1.0 mph 1.0 mph 73% 0.00 in 624 W/m2
16:08 63.1 °F 53.9 °F 29.81 in West 1.0 mph 2.0 mph 72% 0.00 in 158 W/m2
16:14 62.4 °F 53.6 °F 29.81 in West 1.0 mph 1.0 mph 73% 0.00 in 144 W/m2
16:20 61.6 °F 53.2 °F 29.81 in NNE 1.0 mph 1.0 mph 74% 0.00 in 153 W/m2
16:26 61.5 °F 53.9 °F 29.81 in NNE 1.0 mph 2.0 mph 76% 0.00 in 733 W/m2
16:32 62.2 °F 53.1 °F 29.81 in NNE 1.0 mph 3.0 mph 72% 0.00 in 172 W/m2
16:38 61.8 °F 52.7 °F 29.81 in NNE 1.0 mph 3.0 mph 72% 0.00 in 97 W/m2
16:44 61.2 °F 52.5 °F 29.82 in Calm   1.0 mph 73% 0.00 in 77 W/m2
16:50 60.7 °F 52.4 °F 29.82 in Calm     74% 0.00 in 72 W/m2
16:56 60.7 °F 53.1 °F 29.81 in Calm     76% 0.00 in 232 W/m2
17:02 62.3 °F 54.3 °F 29.81 in Calm     75% 0.00 in 174 W/m2
17:08 62.6 °F 53.1 °F 29.81 in Calm     71% 0.00 in 255 W/m2
17:14 63.6 °F 54.0 °F 29.81 in SW 1.0 mph 2.0 mph 71% 0.00 in 425 W/m2
17:20 64.3 °F 52.7 °F 29.81 in SW 2.0 mph 3.0 mph 66% 0.00 in 381 W/m2
17:25 64.7 °F 52.2 °F 29.81 in WSW 2.0 mph 3.0 mph 64% 0.00 in 345 W/m2
17:32 64.2 °F 52.2 °F 29.81 in SSW 1.0 mph 2.0 mph 65% 0.00 in 51 W/m2
17:38 63.1 °F 51.6 °F 29.81 in WSW 3.0 mph 6.0 mph 66% 0.00 in 76 W/m2
17:44 62.8 °F 52.1 °F 29.81 in WSW 2.0 mph 3.0 mph 68% 0.00 in 98 W/m2
17:50 62.8 °F 52.1 °F 29.81 in WSW 1.0 mph 1.0 mph 68% 0.00 in 118 W/m2
17:56 63.2 °F 52.5 °F 29.81 in SW 2.0 mph 3.0 mph 68% 0.00 in 102 W/m2
18:02 63.7 °F 52.5 °F 29.81 in SW 2.0 mph 2.0 mph 67% 0.00 in 100 W/m2
18:08 63.8 °F 51.8 °F 29.81 in SW 1.0 mph 2.0 mph 65% 0.00 in 44 W/m2
18:14 63.4 °F 51.8 °F 29.81 in SW 1.0 mph 1.0 mph 66% 0.00 in 47 W/m2
18:20 62.9 °F 51.8 °F 29.81 in SW 1.0 mph 2.0 mph 67% 0.00 in 69 W/m2
18:26 62.7 °F 52.0 °F 29.81 in SW 1.0 mph 2.0 mph 68% 0.00 in 81 W/m2
18:32 62.8 °F 52.1 °F 29.81 in SW 1.0 mph 3.0 mph 68% 0.00 in 33 W/m2
18:38 62.8 °F 51.7 °F 29.82 in SW 2.0 mph 3.0 mph 67% 0.00 in 30 W/m2
18:44 62.6 °F 51.9 °F 29.82 in SW 2.0 mph 2.0 mph 68% 0.00 in 28 W/m2
18:50 62.3 °F 52.0 °F 29.82 in SW 1.0 mph 1.0 mph 69% 0.00 in 30 W/m2
18:56 62.0 °F 51.7 °F 29.82 in SW 1.0 mph 2.0 mph 69% 0.00 in 21 W/m2
19:08 61.5 °F 52.0 °F 29.83 in SSW 2.0 mph 2.0 mph 71% 0.00 in 12 W/m2
19:19 61.1 °F 52.0 °F 29.83 in WSW 1.0 mph 1.0 mph 72% 0.00 in 5 W/m2
19:25 61.0 °F 51.9 °F 29.83 in SW 2.0 mph 6.0 mph 72% 0.00 in 0 W/m2
19:31 61.2 °F 50.6 °F 29.83 in WSW 3.0 mph 3.0 mph 68% 0.00 in 0 W/m2
19:38 61.3 °F 49.8 °F 29.84 in SW 3.0 mph 8.0 mph 66% 0.00 in 0 W/m2
19:43 61.2 °F 49.7 °F 29.84 in SW 2.0 mph 2.0 mph 66% 0.00 in 0 W/m2
19:49 61.1 °F 49.7 °F 29.84 in WSW 2.0 mph 2.0 mph 66% 0.00 in 0 W/m2
19:55 60.9 °F 49.5 °F 29.84 in WSW 3.0 mph 5.0 mph 66% 0.00 in 0 W/m2
20:02 60.8 °F 49.0 °F 29.84 in SW 3.0 mph 5.0 mph 65% 0.00 in 0 W/m2
20:08 60.7 °F 48.9 °F 29.84 in SSW 2.0 mph 5.0 mph 65% 0.00 in 0 W/m2
20:13 60.6 °F 48.4 °F 29.85 in WSW 2.0 mph 4.0 mph 64% 0.00 in 0 W/m2
20:19 60.4 °F 48.2 °F 29.85 in WSW 3.0 mph 3.0 mph 64% 0.00 in 0 W/m2
20:25 60.1 °F 48.3 °F 29.85 in WSW 2.0 mph 4.0 mph 65% 0.00 in 0 W/m2
20:31 59.7 °F 47.9 °F 29.86 in WSW 2.0 mph 7.0 mph 65% 0.00 in 0 W/m2
20:37 59.5 °F 48.1 °F 29.86 in West 3.0 mph 7.0 mph 66% 0.00 in 0 W/m2
20:43 59.2 °F 48.2 °F 29.86 in SW 2.0 mph 6.0 mph 67% 0.00 in 0 W/m2
20:49 59.0 °F 48.4 °F 29.86 in WSW 3.0 mph 3.0 mph 68% 0.00 in 0 W/m2
20:55 58.7 °F 48.6 °F 29.86 in SW 2.0 mph 3.0 mph 69% 0.00 in 0 W/m2
21:02 58.4 °F 48.7 °F 29.86 in SW 2.0 mph 3.0 mph 70% 0.00 in 0 W/m2
21:07 58.2 °F 48.8 °F 29.86 in SW 3.0 mph 5.0 mph 71% 0.00 in 0 W/m2
21:13 58.0 °F 49.0 °F 29.86 in SW 2.0 mph 3.0 mph 72% 0.00 in 0 W/m2
21:19 57.8 °F 49.2 °F 29.86 in SW 2.0 mph 3.0 mph 73% 0.00 in 0 W/m2
21:25 57.7 °F 49.1 °F 29.87 in SW 2.0 mph 5.0 mph 73% 0.00 in 0 W/m2
21:31 57.5 °F 48.9 °F 29.86 in SSW 2.0 mph 3.0 mph 73% 0.00 in 0 W/m2
21:37 57.4 °F 49.2 °F 29.86 in WSW 2.0 mph 3.0 mph 74% 0.00 in 0 W/m2
21:43 57.2 °F 49.0 °F 29.87 in SSW 2.0 mph 5.0 mph 74% 0.00 in 0 W/m2
21:49 57.1 °F 48.9 °F 29.86 in SW 2.0 mph 2.0 mph 74% 0.00 in 0 W/m2
21:55 57.0 °F 49.2 °F 29.87 in SW 2.0 mph 2.0 mph 75% 0.00 in 0 W/m2
22:03 56.8 °F 49.0 °F 29.87 in WSW 1.0 mph 4.0 mph 75% 0.00 in 0 W/m2
22:09 56.6 °F 49.1 °F 29.87 in WSW 2.0 mph 2.0 mph 76% 0.00 in 0 W/m2
22:15 56.6 °F 49.1 °F 29.87 in WSW 2.0 mph 4.0 mph 76% 0.00 in 0 W/m2
22:21 56.5 °F 49.0 °F 29.87 in WSW 2.0 mph 6.0 mph 76% 0.00 in 0 W/m2
22:27 56.5 °F 49.0 °F 29.87 in WSW 3.0 mph 8.0 mph 76% 0.00 in 0 W/m2
22:33 56.5 °F 49.0 °F 29.87 in SW 3.0 mph 5.0 mph 76% 0.00 in 0 W/m2
22:39 56.5 °F 49.0 °F 29.87 in WSW 3.0 mph 3.0 mph 76% 0.00 in 0 W/m2
22:45 56.4 °F 49.3 °F 29.87 in SW 2.0 mph 6.0 mph 77% 0.00 in 0 W/m2
22:51 56.2 °F 49.1 °F 29.87 in WSW 2.0 mph 2.0 mph 77% 0.00 in 0 W/m2
22:58 56.0 °F 48.9 °F 29.88 in WSW 2.0 mph 2.0 mph 77% 0.00 in 0 W/m2
23:03 55.9 °F 48.8 °F 29.88 in SW 2.0 mph 5.0 mph 77% 0.00 in 0 W/m2
23:09 55.9 °F 48.8 °F 29.88 in WSW 2.0 mph 2.0 mph 77% 0.00 in 0 W/m2
23:19 55.6 °F 48.8 °F 29.88 in SW 1.0 mph 1.0 mph 78% 0.00 in 0 W/m2
23:25 55.7 °F 48.6 °F 29.88 in WSW 2.0 mph 4.0 mph 77% 0.00 in 0 W/m2
23:31 55.7 °F 48.6 °F 29.89 in SW 2.0 mph 4.0 mph 77% 0.00 in 0 W/m2
23:37 55.7 °F 48.6 °F 29.89 in WSW 3.0 mph 9.0 mph 77% 0.00 in 0 W/m2
23:45 55.6 °F 48.5 °F 29.89 in SSW 2.0 mph 3.0 mph 77% 0.00 in 0 W/m2
23:51 55.5 °F 48.1 °F 29.89 in WSW 2.0 mph 5.0 mph 76% 0.00 in 0 W/m2
23:58 55.5 °F 48.1 °F 29.89 in SW 3.0 mph 5.0 mph 76% 0.00 in 0 W/m2
Country Meadow, Clay, NY, USA
Compliments of Weather Underground - 2 mb